Veter Od: 01-12-2021 10:00 Do: 19:59 Opozorilo za: Veter Stopnja: Rumena info button

METAR v bližini

 

LIPQ - Ronchi Legionari, Italy
Oddaljenost od postaje: JZ 35km
Podatki zajeti: 01. 12. 2021 18:50
Pretežno oblačno
Pretežno oblačno
 Veter iz smeri Z
Veter: Z 6 km/h
Temperatura: 7°C
Temp. rosišča: 6°C
Vlažnost: 93%
Tlak: 1007 hPa
Oblačnost: Pretežno oblačno
Vidljivost: 10 km
Podrobnosti o oblakih: Rahlo oblačno 1189 m
Pretežno oblačno 2256 m
2021/12/01 17:50 LIPQ 011750Z AUTO 28003KT 9999 FEW039/// BKN074/// 07/06 Q1007
LIVT - Trieste, Italy
Oddaljenost od postaje: J 49km
Podatki zajeti: 01. 12. 2021 18:55
Rahlo rosi, Pretežno oblačno
Rahlo rosi, Pretežno oblačno
 Veter iz smeri calm
Veter: Tišina
Temperatura: 8°C
Temp. rosišča: 8°C
Vlažnost: 100%
Tlak: 1007 hPa
Stanje: Rahlo rosi
Oblačnost: Pretežno oblačno
Vidljivost: 7 km
Podrobnosti o oblakih: Delno oblačno 610 m
Pretežno oblačno 762 m
2021/12/01 17:55 LIVT 011755Z 00000KT 7000 -DZ SCT020 BKN025 08/08 Q1007 RMK OVC QUK / QUL / VIS MAR 7 KM VIS MIN 7000
 
LIVO - Tarvisio, Italy
Oddaljenost od postaje: SSZ 49km
Podatki zajeti: 01. 12. 2021 17:55
Ni posodobljen
Pretežno oblačno
Pretežno oblačno
 Veter iz smeri SZ
Veter: SZ 13 km/h
Temperatura: 3°C
Občutek mraza zaradi vetra: -1°C
Temp. rosišča: 2°C
Vlažnost: 93%
Tlak: 1004 hPa
Oblačnost: Pretežno oblačno
Vidljivost: 10 km
Podrobnosti o oblakih: Pretežno oblačno 549 m
2021/12/01 16:55 LIVO 011655Z 31007KT 9999 BKN018 03/02 Q1004 RMK BKN VIS MIN 9999
LIPI - Rivolto (it-Afb), Italy
Oddaljenost od postaje: ZJZ 57km
Podatki zajeti: 01. 12. 2021 18:55
Pretežno oblačno
Pretežno oblačno
 Veter iz smeri Z
Veter: Z 2 km/h
Temperatura: 8°C
Temp. rosišča: 4°C
Vlažnost: 76%
Tlak: 1006 hPa
Oblačnost: Pretežno oblačno
Vidljivost: 10 km
Podrobnosti o oblakih: Pretežno oblačno 1524 m
2021/12/01 17:55 LIPI 011755Z 28001KT 9999 BKN050 08/04 Q1006 RMK BKN VIS MIN 9999 WIND THR06 33001KT WIND THR24 04001KT BLU
 
LJLJ - Ljubljana/Brnik, Slovenia
Oddaljenost od postaje: VSV 59km
Podatki zajeti: 01. 12. 2021 19:00
Pretežno oblačno
Pretežno oblačno
 Veter iz smeri ZSZ
Veter: ZSZ 11 km/h
Temperatura: 1°C
Občutek mraza zaradi vetra: -2°C
Temp. rosišča: 1°C
Vlažnost: 100%
Tlak: 1005 hPa
Oblačnost: Pretežno oblačno
Vidljivost: 10 km
Podrobnosti o oblakih: Rahlo oblačno 61 m
Pretežno oblačno 853 m
2021/12/01 18:00 LJLJ 011800Z 30006KT 9999 FEW002 BKN028 01/01 Q1005 NOSIG
LJPZ - Portoroz, Slovenia
Oddaljenost od postaje: J 68km
Podatki zajeti: 01. 12. 2021 19:00
Oblačno
Oblačno
 Veter iz smeri VJV
Veter: VJV 7 km/h
Temperatura: 8°C
Občutek mraza zaradi vetra: 7°C
Temp. rosišča: 8°C
Vlažnost: 100%
Tlak: 1007 hPa
Oblačnost: Oblačno
Vidljivost: 10 km
Podrobnosti o oblakih: Rahlo oblačno 884 m
Pretežno oblačno 1524 m
Oblačno 2438 m
2021/12/01 18:00 LJPZ 011800Z 11004KT 9999 FEW029 BKN050 OVC080 08/08 Q1007
 
LOWK - Klagenfurt(Civ/M, Austria
Oddaljenost od postaje: SV 78km
Podatki zajeti: 01. 12. 2021 18:50
Delno oblačno
Delno oblačno
 Veter iz smeri spremenljiv
Veter: spremenljiv 4 km/h
Temperatura: 1°C
Temp. rosišča: 0°C
Vlažnost: 93%
Tlak: 1004 hPa
Oblačnost: Delno oblačno
Vidljivost: 10 km
Podrobnosti o oblakih: Rahlo oblačno 1219 m
Delno oblačno 1829 m
2021/12/01 17:50 LOWK 011750Z VRB02KT 9999 FEW040 SCT060 01/M00 Q1004 NOSIG
LIPA - Aviano (it/Us-Af, Italy
Oddaljenost od postaje: Z 89km
Podatki zajeti: 01. 12. 2021 18:55
Pretežno oblačno
Pretežno oblačno
 Veter iz smeri VSV
Veter: VSV 2 km/h
Temperatura: 7°C
Temp. rosišča: 4°C
Vlažnost: 81%
Tlak: 1006 hPa
Oblačnost: Pretežno oblačno
Vidljivost: 10 km
Podrobnosti o oblakih: Delno oblačno 1524 m
Pretežno oblačno 1676 m
2021/12/01 17:55 LIPA 011755Z 07001KT 9999 SCT050 BKN055 07/04 Q1006 RMK BKN VIS MIN 9999 WIND THR05 /////KT WIND THR23 /////KT A2974 BLU
 
LDRI - Rijeka/Omisalj, Croatia
Oddaljenost od postaje: JV 115km
Podatki zajeti: 01. 12. 2021 19:00
Dež, Oblačno
Dež, Oblačno
 Veter iz smeri JJV
Veter: JJV 20 km/h
Temperatura: 11°C
Temp. rosišča: 9°C
Vlažnost: 88%
Tlak: 1007 hPa
Stanje: Dež
Oblačnost: Oblačno
Vidljivost: 10 km
Podrobnosti o oblakih: Rahlo oblačno 1006 m
Oblačno 1128 m
2021/12/01 18:00 LDRI 011800Z 15011KT 9999 RA FEW033 OVC037 11/09 Q1007
LIPZ - Venezia/Tessera, Italy
Oddaljenost od postaje: ZJZ 127km
Podatki zajeti: 01. 12. 2021 18:50
Pretežno oblačno
Pretežno oblačno
 Veter iz smeri SSZ
Veter: SSZ 6 km/h
Temperatura: 7°C
Temp. rosišča: 2°C
Vlažnost: 71%
Tlak: 1007 hPa
Oblačnost: Pretežno oblačno
Vidljivost: 10 km
Podrobnosti o oblakih: Pretežno oblačno 1707 m
2021/12/01 17:50 LIPZ 011750Z 34003KT 9999 BKN056 07/02 Q1007 NOSIG
 
LDPL - Pula, Croatia
Oddaljenost od postaje: J 133km
Podatki zajeti: 01. 12. 2021 19:00
Pretežno oblačno
Pretežno oblačno
 Veter iz smeri JZ
Veter: JZ 17 km/h
Temperatura: 13°C
Temp. rosišča: 7°C
Vlažnost: 67%
Tlak: 1007 hPa
Oblačnost: Pretežno oblačno
Vidljivost: 10 km
Podrobnosti o oblakih: Delno oblačno 1067 m
Pretežno oblačno 1372 m
2021/12/01 18:00 LDPL 011800Z 22009KT 9999 SCT035 BKN045 13/07 Q1007 NOSIG
LIPS - Istrana (it-Afb), Italy
Oddaljenost od postaje: ZJZ 136km
Podatki zajeti: 01. 12. 2021 18:55
Pretežno oblačno
Pretežno oblačno
 Veter iz smeri J
Veter: J 2 km/h
Temperatura: 6°C
Temp. rosišča: 4°C
Vlažnost: 87%
Tlak: 1007 hPa
Oblačnost: Pretežno oblačno
Vidljivost: 10 km
Podrobnosti o oblakih: Pretežno oblačno 1219 m
2021/12/01 17:55 LIPS 011755Z 18001KT 9999 BKN040 06/04 Q1007 RMK BKN VIS MIN 9999 WIND THR26 00000KT WIND THR08 00000KT BLK BLU
 
LIVD - Dobbiaco, Italy
Oddaljenost od postaje: ZSZ 137km
Podatki zajeti: 01. 12. 2021 18:55
Rahel sneg, Oblačno
Rahel sneg, Oblačno
 Veter iz smeri spremenljiv
Veter: spremenljiv 0 km/h
Temperatura: 0°C
Temp. rosišča: -4°C
Vlažnost: 75%
Tlak: 1005 hPa
Stanje: Rahel sneg
Oblačnost: Oblačno
Vidljivost: 10 km
Podrobnosti o oblakih: Oblačno 610 m
2021/12/01 17:55 LIVD 011755Z /////KT 9999 -SN OVC020 00/M04 Q1005 RMK OVC VIS MIN 9999
LJCE - Cerklje, Slovenia
Oddaljenost od postaje: V 139km
Podatki zajeti: 01. 12. 2021 19:00
Pretežno oblačno
Pretežno oblačno
 Veter iz smeri calm
Veter: Tišina
Temperatura: 9°C
Temp. rosišča: 4°C
Vlažnost: 71%
Tlak: 1005 hPa
Oblačnost: Pretežno oblačno
Vidljivost: 10 km
Podrobnosti o oblakih: Pretežno oblačno 1128 m
2021/12/01 18:00 LJCE 011800Z 00000KT 9999 BKN037 09/04 Q1005 RMK BLU
 
LOXZ - Zeltweg (mil), Austria
Oddaljenost od postaje: SSV 147km
Podatki zajeti: 01. 12. 2021 18:50
Pretežno oblačno
Pretežno oblačno
 Veter iz smeri spremenljiv
Veter: spremenljiv 4 km/h
Temperatura: 1°C
Temp. rosišča: -1°C
Vlažnost: 87%
Tlak: 1001 hPa
Oblačnost: Pretežno oblačno
Podrobnosti o oblakih: Rahlo oblačno 1524 m
Pretežno oblačno 3962 m
2021/12/01 17:50 LOXZ 011750Z VRB02KT 20KM FEW050SC BKN130AC 01/M01 Q1001
sucontract_SNC